createdAt,value
2022-12-20T00:00:58.459Z,183.08
2022-12-20T00:04:59.642Z,185.81
2022-12-20T00:05:59.663Z,188.34
2022-12-20T00:06:58.703Z,183.04
2022-12-20T00:07:57.914Z,184.68
2022-12-20T00:08:57.814Z,187.83
2022-12-20T00:09:57.704Z,188.97
2022-12-20T00:10:57.624Z,189.27
2022-12-20T00:12:57.653Z,187.46
2022-12-20T00:13:57.661Z,188.68
2022-12-20T00:14:57.218Z,186.43
2022-12-20T00:15:57.329Z,190.30
2022-12-20T00:25:56.572Z,193.49
2022-12-20T00:26:56.489Z,194.06
2022-12-20T00:27:56.380Z,194.42
2022-12-20T00:28:56.296Z,193.97
2022-12-20T00:30:57.645Z,195.47
2022-12-20T00:31:56.169Z,196.51
2022-12-20T00:32:56.029Z,195.90
2022-12-20T00:33:55.939Z,193.07
2022-12-20T00:34:55.822Z,194.65
2022-12-20T00:35:56.261Z,195.14
2022-12-20T00:36:55.734Z,195.74
2022-12-20T00:37:55.736Z,196.95
2022-12-20T00:38:55.559Z,197.27
2022-12-20T00:39:55.475Z,193.84
2022-12-20T00:40:55.349Z,197.25
2022-12-20T00:41:55.262Z,197.84
2022-12-20T00:42:55.255Z,193.65
2022-12-20T00:43:55.291Z,198.89
2022-12-20T00:44:55.096Z,200.22
2022-12-20T00:45:54.972Z,197.80
2022-12-20T00:46:54.933Z,197.72
2022-12-20T00:48:54.697Z,198.05
2022-12-20T00:52:54.304Z,199.38
2022-12-20T01:04:53.369Z,201.57
2022-12-20T01:05:53.791Z,202.22
2022-12-20T01:06:53.285Z,202.12
2022-12-20T01:07:53.280Z,202.02
2022-12-20T01:08:53.080Z,201.91
2022-12-20T01:09:53.021Z,203.56
2022-12-20T01:10:52.907Z,203.29
2022-12-20T01:11:52.791Z,202.67
2022-12-20T01:12:52.815Z,204.43
2022-12-20T01:15:53.225Z,204.20
2022-12-20T01:16:52.377Z,203.06
2022-12-20T01:19:52.053Z,204.74
2022-12-20T01:20:52.052Z,204.96
2022-12-20T01:22:52.242Z,205.50
2022-12-20T01:24:51.657Z,202.11
2022-12-20T01:25:51.660Z,203.06
2022-12-20T01:26:51.447Z,205.50
2022-12-20T01:27:51.455Z,203.71
2022-12-20T01:29:51.288Z,204.92
2022-12-20T01:30:51.182Z,203.86
2022-12-20T01:31:51.211Z,202.72
2022-12-20T01:33:51.336Z,202.31
2022-12-20T01:34:50.902Z,207.19
2022-12-20T01:35:50.797Z,204.29
2022-12-20T01:36:50.600Z,206.46
2022-12-20T01:37:50.520Z,205.85
2022-12-20T01:41:50.733Z,204.41
2022-12-20T01:43:50.265Z,204.85
2022-12-20T01:44:50.264Z,206.13
2022-12-20T01:45:50.021Z,204.27
2022-12-20T01:46:49.873Z,205.34
2022-12-20T01:47:49.751Z,206.09
2022-12-20T01:49:49.572Z,203.87
2022-12-20T01:50:49.487Z,204.85
2022-12-20T01:52:49.780Z,203.88
2022-12-20T01:53:49.301Z,205.17
2022-12-20T01:54:49.306Z,204.16
2022-12-20T01:55:49.313Z,203.70
2022-12-20T01:58:48.814Z,204.45
2022-12-20T01:59:48.725Z,204.70
2022-12-20T02:00:48.626Z,205.33
2022-12-20T02:03:49.255Z,204.87
2022-12-20T02:04:49.253Z,205.87
2022-12-20T02:05:48.779Z,206.48
2022-12-20T02:06:48.254Z,204.36
2022-12-20T02:07:48.057Z,206.96
2022-12-20T02:08:47.974Z,203.27
2022-12-20T02:09:47.850Z,204.54
2022-12-20T02:10:47.776Z,208.24
2022-12-20T02:11:47.656Z,207.07
2022-12-20T02:12:47.789Z,206.50
2022-12-20T02:13:47.788Z,207.04
2022-12-20T02:14:47.799Z,205.23
2022-12-20T02:15:47.816Z,206.26
2022-12-20T02:16:47.318Z,206.71
2022-12-20T02:17:47.324Z,205.28
2022-12-20T02:18:47.312Z,204.15
2022-12-20T02:25:48.282Z,207.90
2022-12-20T02:26:47.243Z,207.55
2022-12-20T02:27:47.250Z,208.76
2022-12-20T03:46:40.945Z,204.68
2022-12-20T03:47:40.528Z,200.54
2022-12-20T03:48:40.848Z,202.01
2022-12-20T03:49:40.347Z,199.61
2022-12-20T03:50:40.223Z,198.18
2022-12-20T03:52:40.390Z,203.94
2022-12-20T03:55:40.814Z,201.23
2022-12-20T03:56:41.330Z,201.40
2022-12-20T03:57:39.683Z,201.53
2022-12-20T03:58:40.317Z,201.72
2022-12-20T03:59:39.482Z,201.77
2022-12-20T04:00:39.788Z,201.92
2022-12-20T04:01:39.440Z,202.02
2022-12-20T04:02:39.400Z,201.58
2022-12-20T04:03:39.175Z,199.19
2022-12-20T04:04:39.011Z,197.87
2022-12-20T04:05:38.923Z,198.45
2022-12-20T04:06:38.818Z,196.83
2022-12-20T04:07:38.729Z,196.74
2022-12-20T04:08:38.619Z,195.15
2022-12-20T04:09:38.521Z,195.16
2022-12-20T04:10:38.832Z,195.64
2022-12-20T04:11:38.836Z,193.28
2022-12-20T04:12:38.357Z,196.34
2022-12-20T04:13:38.365Z,195.33
2022-12-20T04:14:38.376Z,193.83
2022-12-20T04:15:38.390Z,192.37
2022-12-20T04:16:38.458Z,192.55
2022-12-20T04:17:37.870Z,193.20
2022-12-20T04:18:37.774Z,190.70
2022-12-20T14:05:54.831Z,25.00
2022-12-20T14:06:54.745Z,25.00
2022-12-20T14:07:54.681Z,25.00
